ESMQ

Kalmar Airport

Sweden
TAF ESMQ 181430Z 1815/1822 17011KT CAVOK
Issued Valid From Valid To
Sep-18 @ 14:30 UTC
(3 hours ago)
Sep-18 @ 15:00 UTC
(3 hours ago)
Sep-18 @ 22:00 UTC
(in 4 hours)
Sep-18 @ 15:00 to Sep-18 @ 22:00
TAF ESMQ 181430Z 1815/1822 17011KT CAVOK
Wind Visibility Clouds Conditions
170° at 11 knots 10,000+ meters
  • No significant clouds
TAF ESMQ 181430Z 1815/1822 17011KT CAVOK
Issued Sep-18 @ 14:30 UTC
(3 hours ago)
Valid From Sep-18 @ 15:00 UTC
(3 hours ago)
Valid To Sep-18 @ 22:00 UTC
(in 4 hours)
Sep-18 @ 15:00 - Sep-18 @ 22:00
Wind Visibility
170° at 11 knots 10,000+ meters
Clouds
  • No significant clouds
Conditions